Weather History for Harbor Springs, MI

Change the Weather History Date:

Saturday, June 22, 2013

  Actual Average (KPLN) Record (KPLN)
Temperature  
Mean Temperature 64 °F -  
Max Temperature 72 °F 74 °F 92 °F (1957)
Min Temperature 55 °F 51 °F 30 °F (1963)
Degree Days  
Heating Degree Days 2    
Growing Degree Days 14 (Base 50)    
Moisture  
Dew Point 58 °F    
Average Humidity 90    
Maximum Humidity 98    
Minimum Humidity 69    
Precipitation  
Precipitation 0.00 in - - ()
Sea Level Pressure  
Sea Level Pressure 30.03 in    
Wind  
Wind Speed 5 mph (West)    
Max Wind Speed 12 mph    
Max Gust Speed 22 mph    
Visibility 6 miles    
Events Fog    
Averages and records for this station are not official NWS values.
T = Trace of Precipitation, MM = Missing Value Source: NWS Daily Summary

Daily Weather History Graph

Daily Weather History Graph

Search for Another Location

Airport:

Trip Planner

Search our weather history database for the weather conditions in past years. The results will help you decide how hot, cold, wet, or windy it might be!

Date:

Astronomy

Jun. 22, 2013 Rise Set
Actual Time 5:51 AM EDT 9:31 PM EDT
Civil Twilight 5:13 AM EDT 10:09 PM EDT
Nautical Twilight 4:22 AM EDT 11:00 PM EDT
Astronomical Twilight 3:14 AM EDT 12:09 AM EDT
Moon 8:42 PM EDT (6/22) 5:06 AM EDT (6/22)
Length of Visible Light 16h 56m
Length of Day
15h 40m
Waxing Gibbous, 99% of the Moon is Illuminated
Jun 22
Waxing Gibbous
Jun 23
Full
Jun 30
Last Quarter
Jul 8
New
Jul 15
First Quarter

Hourly Weather History & Observations

Time (EDT) Temp. Dew Point Humidity Pressure Visibility Wind Dir Wind Speed Gust Speed Precip Events Conditions
12:15 AM 66.0 °F 60.1 °F 81% 29.97 in 10.0 mi West 8.1 mph - N/A   Overcast
12:35 AM 64.8 °F 59.7 °F 84% 29.98 in 10.0 mi West 8.1 mph - N/A   Light Drizzle
12:55 AM 61.7 °F 58.3 °F 89% 29.99 in 5.0 mi West 11.5 mph 21.9 mph N/A   Heavy Drizzle
1:15 AM 59.2 °F 57.0 °F 93% 30.00 in 7.0 mi West 9.2 mph 16.1 mph N/A   Overcast
1:35 AM 57.7 °F 55.8 °F 93% 30.01 in 10.0 mi WSW 6.9 mph 17.3 mph N/A   Overcast
1:55 AM 57.2 °F 55.4 °F 94% 30.01 in 7.0 mi WSW 5.8 mph - N/A   Overcast
2:15 AM 56.1 °F 54.5 °F 94% 30.00 in 7.0 mi WSW 6.9 mph - N/A   Overcast
2:35 AM 55.4 °F 53.8 °F 94% 29.98 in 3.0 mi SW 3.5 mph - N/A   Overcast
2:55 AM 55.4 °F 54.3 °F 96% 29.97 in 0.8 mi Calm Calm - N/A   Overcast
3:15 AM 57.4 °F 56.3 °F 96% 29.99 in 0.5 mi West 6.9 mph - N/A Fog Fog
3:35 AM 57.7 °F 57.2 °F 98% 29.97 in 0.5 mi Calm Calm - N/A Fog Fog
3:55 AM 57.7 °F 57.2 °F 98% 29.97 in 0.5 mi West 4.6 mph - N/A Fog Fog
4:14 AM 57.7 °F 57.2 °F 98% 29.96 in 0.5 mi Calm Calm - N/A Fog Fog
4:35 AM 57.7 °F 57.2 °F 98% 29.97 in 1.0 mi Calm Calm - N/A   Overcast
4:55 AM 57.7 °F 57.0 °F 97% 29.97 in 0.5 mi Calm Calm - N/A Fog Fog
5:14 AM 57.7 °F 57.2 °F 98% 29.97 in 0.5 mi Calm Calm - N/A Fog Fog
5:35 AM 57.7 °F 57.2 °F 98% 29.98 in 0.5 mi Calm Calm - N/A Fog Fog
5:55 AM 57.7 °F 57.2 °F 98% 29.98 in 0.5 mi Calm Calm - N/A Fog Fog
6:15 AM 57.7 °F 57.2 °F 98% 30.01 in 0.5 mi Calm Calm - N/A Fog Fog
6:35 AM 57.7 °F 57.2 °F 98% 30.02 in 0.5 mi WSW 5.8 mph - N/A Fog Fog
6:55 AM 57.7 °F 57.2 °F 98% 30.02 in 0.2 mi Calm Calm - N/A Fog Fog
7:14 AM 55.6 °F 54.9 °F 97% 30.03 in 0.2 mi WSW 4.6 mph - N/A Fog Fog
7:35 AM 55.4 °F 54.5 °F 97% 30.03 in 0.2 mi West 3.5 mph - N/A Fog Fog
7:55 AM 55.4 °F 54.5 °F 97% 30.04 in 0.2 mi West 3.5 mph - N/A Fog Fog
8:14 AM 55.8 °F 55.0 °F 97% 30.04 in 0.2 mi SW 5.8 mph - N/A Fog Fog
8:35 AM 55.4 °F 54.5 °F 97% 30.05 in 0.2 mi WSW 4.6 mph - N/A Fog Fog
8:55 AM 55.4 °F 54.5 °F 97% 30.06 in 0.2 mi WSW 5.8 mph - N/A Fog Fog
9:15 AM 55.4 °F 54.5 °F 97% 30.06 in 0.2 mi SW 5.8 mph - N/A Fog Fog
9:35 AM 55.4 °F 54.5 °F 97% 30.07 in 0.2 mi WSW 4.6 mph - N/A Fog Fog
9:55 AM 55.4 °F 54.5 °F 97% 30.07 in 0.2 mi SW 5.8 mph - N/A Fog Fog
10:15 AM 55.4 °F 54.7 °F 97% 30.07 in 0.2 mi SW 3.5 mph - N/A Fog Fog
10:35 AM 55.4 °F 54.7 °F 97% 30.07 in 0.2 mi SW 4.6 mph - N/A Fog Fog
10:55 AM 55.4 °F 54.7 °F 97% 30.07 in 0.2 mi SW 4.6 mph - N/A Fog Fog
11:15 AM 55.4 °F 54.7 °F 97% 30.07 in 0.2 mi SW 4.6 mph - N/A Fog Fog
11:35 AM 55.4 °F 54.7 °F 97% 30.08 in 0.5 mi SW 4.6 mph - N/A Fog Fog
11:55 AM 55.6 °F 55.0 °F 98% 30.08 in 0.8 mi WSW 4.6 mph - N/A   Overcast
12:15 PM 57.7 °F 57.2 °F 98% 30.09 in 1.8 mi SW 3.5 mph - N/A   Overcast
12:35 PM 57.7 °F 57.2 °F 98% 30.08 in 4.0 mi Calm Calm - N/A   Overcast
12:55 PM 57.7 °F 57.2 °F 98% 30.08 in 5.0 mi SSW 3.5 mph - N/A   Overcast
1:15 PM 57.7 °F 57.2 °F 98% 30.06 in 5.0 mi WSW 5.8 mph - N/A   Overcast
1:35 PM 57.7 °F 57.2 °F 98% 30.06 in 7.0 mi SW 3.5 mph - N/A   Overcast
1:55 PM 57.7 °F 57.2 °F 98% 30.07 in 5.0 mi WSW 5.8 mph - N/A   Overcast
2:15 PM 57.7 °F 57.2 °F 98% 30.06 in 7.0 mi SW 3.5 mph - N/A   Overcast
2:34 PM 57.9 °F 56.8 °F 96% 30.07 in 10.0 mi SW 3.5 mph - N/A   Overcast
2:55 PM 59.4 °F 57.7 °F 94% 30.05 in 10.0 mi Calm Calm - N/A   Overcast
3:15 PM 63.1 °F 59.2 °F 87% 30.04 in 10.0 mi Calm Calm - N/A   Overcast
3:34 PM 68.0 °F 63.0 °F 84% 30.03 in 10.0 mi Calm Calm - N/A   Overcast
3:55 PM 66.6 °F 61.5 °F 84% 30.02 in 10.0 mi Calm Calm - N/A   Overcast
4:15 PM 68.0 °F 61.7 °F 80% 30.01 in 10.0 mi East 4.6 mph - N/A   Overcast
4:34 PM 70.2 °F 62.6 °F 77% 30.02 in 10.0 mi East 3.5 mph - N/A   Mostly Cloudy
4:55 PM 72.9 °F 63.5 °F 72% 30.03 in 10.0 mi Calm Calm - N/A   Mostly Cloudy
5:15 PM 72.9 °F 62.6 °F 70% 30.03 in 10.0 mi NE 4.6 mph - N/A   Scattered Clouds
5:34 PM 72.9 °F 62.1 °F 69% 30.04 in 10.0 mi North 5.8 mph - N/A   Scattered Clouds
5:55 PM 72.9 °F 62.6 °F 70% 30.03 in 10.0 mi NNE 6.9 mph - N/A   Clear
6:15 PM 72.9 °F 62.4 °F 70% 30.04 in 10.0 mi NNW 3.5 mph - N/A   Clear
6:34 PM 68.0 °F 61.2 °F 79% 30.04 in 10.0 mi West 3.5 mph - N/A   Clear
6:55 PM 68.0 °F 60.8 °F 78% 30.03 in 10.0 mi North 8.1 mph - N/A   Clear
7:15 PM 70.3 °F 62.1 °F 75% 30.03 in 10.0 mi NNE 9.2 mph - N/A   Clear
7:34 PM 69.3 °F 61.5 °F 76% 30.03 in 10.0 mi NE 9.2 mph - N/A   Clear
7:55 PM 69.8 °F 61.9 °F 76% 30.04 in 10.0 mi NE 9.2 mph - N/A   Clear
8:15 PM 68.0 °F 60.8 °F 78% 30.05 in 10.0 mi NNE 4.6 mph - N/A   Clear
8:34 PM 68.0 °F 61.0 °F 78% 30.05 in 10.0 mi ENE 5.8 mph - N/A   Clear
8:55 PM 68.0 °F 61.9 °F 81% 30.04 in 10.0 mi ENE 5.8 mph - N/A   Clear
9:15 PM 68.0 °F 63.0 °F 84% 30.04 in 10.0 mi East 5.8 mph - N/A   Clear
9:34 PM 65.5 °F 61.2 °F 86% 30.03 in 10.0 mi ENE 6.9 mph - N/A   Clear
9:55 PM 64.9 °F 61.2 °F 88% 30.02 in 10.0 mi ENE 6.9 mph - N/A   Clear
10:15 PM 62.8 °F 59.5 °F 89% 30.03 in 10.0 mi ENE 5.8 mph - N/A   Clear
10:34 PM 62.8 °F 59.9 °F 90% 30.03 in 10.0 mi ENE 8.1 mph - N/A   Clear
10:55 PM 62.8 °F 60.1 °F 91% 30.03 in 10.0 mi ENE 8.1 mph - N/A   Clear
11:15 PM 62.8 °F 60.1 °F 91% 30.02 in 10.0 mi ENE 9.2 mph - N/A   Clear
11:35 PM 62.8 °F 60.1 °F 91% 30.03 in 10.0 mi ENE 9.2 mph - N/A   Clear
11:55 PM 61.7 °F 59.2 °F 91% 30.04 in 10.0 mi ENE 8.1 mph - N/A   Clear